地図

経路データ

SID SEASON NUMBER BASIN SUBBASIN NAME ISO_TIME NATURE LAT LON WMO_WIND WMO_PRES WMO_AGENCY TRACK_TYPE DIST2LAND LANDFALL IFLAG USA_AGENCY USA_ATCF_ID USA_LAT USA_LON USA_RECORD USA_STATUS USA_WIND USA_PRES USA_SSHS USA_R34_NE USA_R34_SE USA_R34_SW USA_R34_NW USA_R50_NE USA_R50_SE USA_R50_SW USA_R50_NW USA_R64_NE USA_R64_SE USA_R64_SW USA_R64_NW USA_POCI USA_ROCI USA_RMW USA_EYE TOKYO_LAT TOKYO_LON TOKYO_GRADE TOKYO_WIND TOKYO_PRES TOKYO_R50_DIR TOKYO_R50_LONG TOKYO_R50_SHORT TOKYO_R30_DIR TOKYO_R30_LONG TOKYO_R30_SHORT TOKYO_LAND CMA_LAT CMA_LON CMA_CAT CMA_WIND CMA_PRES HKO_LAT HKO_LON HKO_CAT HKO_WIND HKO_PRES NEWDELHI_LAT NEWDELHI_LON NEWDELHI_GRADE NEWDELHI_WIND NEWDELHI_PRES NEWDELHI_CI NEWDELHI_DP NEWDELHI_POCI REUNION_LAT REUNION_LON REUNION_TYPE REUNION_WIND REUNION_PRES REUNION_TNUM REUNION_CI REUNION_RMW REUNION_R34_NE REUNION_R34_SE REUNION_R34_SW REUNION_R34_NW REUNION_R50_NE REUNION_R50_SE REUNION_R50_SW REUNION_R50_NW REUNION_R64_NE REUNION_R64_SE REUNION_R64_SW REUNION_R64_NW BOM_LAT BOM_LON BOM_TYPE BOM_WIND BOM_PRES BOM_TNUM BOM_CI BOM_RMW BOM_R34_NE BOM_R34_SE BOM_R34_SW BOM_R34_NW BOM_R50_NE BOM_R50_SE BOM_R50_SW BOM_R50_NW BOM_R64_NE BOM_R64_SE BOM_R64_SW BOM_R64_NW BOM_ROCI BOM_POCI BOM_EYE BOM_POS_METHOD BOM_PRES_METHOD NADI_LAT NADI_LON NADI_CAT NADI_WIND NADI_PRES WELLINGTON_LAT WELLINGTON_LON WELLINGTON_WIND WELLINGTON_PRES DS824_LAT DS824_LON DS824_STAGE DS824_WIND DS824_PRES TD9636_LAT TD9636_LON TD9636_STAGE TD9636_WIND TD9636_PRES TD9635_LAT TD9635_LON TD9635_WIND TD9635_PRES TD9635_ROCI NEUMANN_LAT NEUMANN_LON NEUMANN_CLASS NEUMANN_WIND NEUMANN_PRES MLC_LAT MLC_LON MLC_CLASS MLC_WIND MLC_PRES USA_GUST BOM_GUST BOM_GUST_PER REUNION_GUST REUNION_GUST_PER USA_SEAHGT USA_SEARAD_NE USA_SEARAD_SE USA_SEARAD_SW USA_SEARAD_NW STORM_SPEED STORM_DIR
1948042S15148 1948 16 SP EA NOT_NAMED 1948-02-10 12:00:00 TS -14.8000 147.600 main 242 240 O________O____ jtwc_sh SH121948 -14.8000 147.600 -1 -14.8000 147.600 TC 7 147
1948042S15148 1948 16 SP EA NOT_NAMED 1948-02-10 15:00:00 TS -15.1076 147.810 main 258 257 P________P____ SH121948 -15.1076 147.810 -1 -15.1076 147.810 TC 7 147
1948042S15148 1948 16 SP EA NOT_NAMED 1948-02-10 18:00:00 TS -15.4000 148.000 main 278 275 O________O____ jtwc_sh SH121948 -15.4000 148.000 -1 -15.4000 148.000 TC 7 149
1948042S15148 1948 16 SP EA NOT_NAMED 1948-02-10 21:00:00 TS -15.6650 148.158 main 285 279 P________P____ SH121948 -15.6650 148.158 -1 -15.6650 148.158 TC 6 150
1948042S15148 1948 16 SP EA NOT_NAMED 1948-02-11 00:00:00 TS -15.9000 148.300 main 284 279 O________O____ jtwc_sh SH121948 -15.9000 148.300 -1 -15.9000 148.300 TC 5 147
1948042S15148 1948 16 SP EA NOT_NAMED 1948-02-11 03:00:00 TS -16.1075 148.458 main 294 288 P________P____ SH121948 -16.1075 148.458 -1 -16.1075 148.458 TC 5 144
1948042S15148 1948 16 SP EA NOT_NAMED 1948-02-11 06:00:00 TS -16.3000 148.600 main 293 288 O________O____ jtwc_sh SH121948 -16.3000 148.600 -1 -16.3000 148.600 TC 5 148
1948042S15148 1948 16 SP EA NOT_NAMED 1948-02-11 09:00:00 TS -16.5075 148.715 main 294 290 P________P____ SH121948 -16.5075 148.715 -1 -16.5075 148.715 TC 4 155
1948042S15148 1948 16 SP EA NOT_NAMED 1948-02-11 12:00:00 TS -16.7000 148.800 main 297 294 O________O____ jtwc_sh SH121948 -16.7000 148.800 -1 -16.7000 148.800 TC 4 157
1948042S15148 1948 16 SP EA NOT_NAMED 1948-02-11 15:00:00 TS -16.8500 148.865 main 305 300 P________P____ SH121948 -16.8500 148.865 -1 -16.8500 148.865 TC 3 163
1948042S15148 1948 16 SP EA NOT_NAMED 1948-02-11 18:00:00 TS -17.0000 148.900 main 300 292 O________O____ jtwc_sh SH121948 -17.0000 148.900 -1 -17.0000 148.900 TC 3 173
1948042S15148 1948 16 SP EA NOT_NAMED 1948-02-11 21:00:00 TS -17.1925 148.908 main 292 274 P________P____ SH121948 -17.1925 148.908 -1 -17.1925 148.908 TC 4 0
1948042S15148 1948 16 SP EA NOT_NAMED 1948-02-12 00:00:00 TS -17.4000 148.900 main 274 256 O________O____ jtwc_sh SH121948 -17.4000 148.900 -1 -17.4000 148.900 TC 4 0
1948042S15148 1948 16 SP EA NOT_NAMED 1948-02-12 03:00:00 TS -17.5925 148.907 main 256 238 P________P____ SH121948 -17.5925 148.907 -1 -17.5925 148.907 TC 4 0
1948042S15148 1948 16 SP EA NOT_NAMED 1948-02-12 06:00:00 TS -17.8000 148.900 main 238 222 O________O____ jtwc_sh SH121948 -17.8000 148.900 -1 -17.8000 148.900 TC 5 187
1948042S15148 1948 16 SP EA NOT_NAMED 1948-02-12 09:00:00 TS -18.0500 148.850 main 222 191 P________P____ SH121948 -18.0500 148.850 -1 -18.0500 148.850 TC 5 191
1948042S15148 1948 16 SP EA NOT_NAMED 1948-02-12 12:00:00 TS -18.3000 148.800 main 191 175 O________O____ jtwc_sh SH121948 -18.3000 148.800 -1 -18.3000 148.800 TC 5 186
1948042S15148 1948 16 SP EA NOT_NAMED 1948-02-12 15:00:00 TS -18.5075 148.800 main 175 154 P________P____ SH121948 -18.5075 148.800 -1 -18.5075 148.800 TC 4 0
1948042S15148 1948 16 SP EA NOT_NAMED 1948-02-12 18:00:00 TS -18.7000 148.800 main 154 133 O________O____ jtwc_sh SH121948 -18.7000 148.800 -1 -18.7000 148.800 TC 4 185
1948042S15148 1948 16 SP EA NOT_NAMED 1948-02-12 21:00:00 TS -18.9075 148.758 main 133 109 P________P____ SH121948 -18.9075 148.758 -1 -18.9075 148.758 TC 4 193
1948042S15148 1948 16 SP EA NOT_NAMED 1948-02-13 00:00:00 TS -19.1000 148.700 main 109 88 O________O____ jtwc_sh SH121948 -19.1000 148.700 -1 -19.1000 148.700 TC 4 196
1948042S15148 1948 16 SP EA NOT_NAMED 1948-02-13 03:00:00 TS -19.2650 148.657 main 88 74 P________P____ SH121948 -19.2650 148.657 -1 -19.2650 148.657 TC 3 197
1948042S15148 1948 16 SP EA NOT_NAMED 1948-02-13 06:00:00 TS -19.4000 148.600 main 74 59 O________O____ jtwc_sh SH121948 -19.4000 148.600 -1 -19.4000 148.600 TC 3 212
1948042S15148 1948 16 SP EA NOT_NAMED 1948-02-13 09:00:00 TS -19.5000 148.500 main 59 45 P________P____ SH121948 -19.5000 148.500 -1 -19.5000 148.500 TC 3 224
1948042S15148 1948 16 SP EA NOT_NAMED 1948-02-13 12:00:00 TS -19.6000 148.400 main 45 35 O________O____ jtwc_sh SH121948 -19.6000 148.400 -1 -19.6000 148.400 TC 3 211
1948042S15148 1948 16 SP EA NOT_NAMED 1948-02-13 15:00:00 TS -19.7425 148.350 main 33 11 P________P____ SH121948 -19.7425 148.350 -1 -19.7425 148.350 TC 3 197
1948042S15148 1948 16 SP EA NOT_NAMED 1948-02-13 18:00:00 TS -19.9000 148.300 main 11 0 O________O____ jtwc_sh SH121948 -19.9000 148.300 -1 -19.9000 148.300 TC 3 203
1948042S15148 1948 16 SP EA NOT_NAMED 1948-02-13 21:00:00 TS -20.0525 148.213 main 0 0 P________P____ SH121948 -20.0525 148.213 -1 -20.0525 148.213 TC 4 212
1948042S15148 1948 16 SP EA NOT_NAMED 1948-02-14 00:00:00 TS -20.2000 148.100 main 0 O________O____ jtwc_sh SH121948 -20.2000 148.100 -1 -20.2000 148.100 TC 4 216

デジタル台風データ・検索

IBTrACS Databaseについて

本データベースは、米国NOAAが公開する1842年以降の世界の熱帯低気圧のベストトラックデータアーカイブInternational Best Track Archive for Climate Stewardship (IBTrACS)を、ウェブで閲覧しやすい形式に変換したものです。

最終更新日:2021-12-03